Nanty Glo, Pennsylvania
Current Conditions -  °F | °C
As of 5:54 PM on Monday 24 Nov 2014 (Local Time) from KJST Reporting Station
Clear Clear  
Wind Chill: 60°   Ceiling: Unl
Heat Index: 60°   Visibility: 10mi
Dew Point: 38°   Wind: 16mph
Humidity: 44%   Direction: 250°WSW
Pressure: 29.61"   Gusts: 29mph
Location:  40.47°N, 78.83°W
Report Text: KJST 242254Z AUTO 25014G25KT 10SM CLR 16/03 A2961 RMK AO2 PK WND 26026/2231 SLP022 T01560033
Loading
Personal Weather Stations






























Interactive Weather Map New forecast layout! Learn more

10-Day Weather Forecast

Advertisements
Track Severe Weather on mobile